• Join FlightAware (Why Join?)
  • Login
  • US Flag 
12:10AM EDT


 

Airport Tracker/Info


-or-


 

Live Flight TrackerFlight Track Log ✈ SWA1718 ✈ 29-Jun-2013 ✈ KDAL - KSAT

Flight Track Log - Related Links

Times and Time Zones

All times are in EDT time to prevent confusion due to time zone crossing. See the SWA1718 flight status page for this flight to view local times or setup timezone preferences in your user account.

Time Position Orientation Groundspeed Altitude Reporting Facility
EDT Latitude Longitude Course Direction KTS MPH feet Rate Location/Type
08:53AM 32.8667 -96.8667 301° West 140 161 1,500  Level Dallas / Fort Worth TRACON
08:54AM 32.8833 -96.9000 301° West 216 249 2,400 2,160 Climbing Dallas / Fort Worth TRACON
08:55AM 32.9167 -96.9500 308° West 224 258 5,000 2,280 Climbing Dallas / Fort Worth TRACON
08:56AM 32.8667 -96.9833 209° Southwest 316 364 7,000 2,400 Climbing Dallas / Fort Worth TRACON
08:57AM 32.7200 -97.0083 188° South 359 413 11,500 2,880 Climbing Fort Worth Center
08:58AM 32.6094 -97.0214 186° South 364 419 14,800 3,000 Climbing Fort Worth Center
08:59AM 32.5072 -97.0317 185° South 370 426 17,500 2,700 Climbing Fort Worth Center
09:00AM 32.3986 -97.0592 192° South 386 444 20,300 2,400 Climbing Fort Worth Center
09:01AM 32.2903 -97.0867 192° South 399 459 22,300 2,220 Climbing Fort Worth Center
09:02AM 32.1858 -97.1089 190° South 420 483 24,800 2,160 Climbing Fort Worth Center
09:03AM 32.0689 -97.1389 192° South 420 483 26,700 1,860 Climbing Fort Worth Center
09:04AM 31.9417 -97.1711 192° South 432 497 28,600 1,620 Climbing Fort Worth Center
09:05AM 31.8206 -97.1958 190° South 432 497 30,000 420 Climbing Fort Worth Center
09:07AM 31.5494 -97.2603 191° South 464 534 30,000  Level Houston Center
09:08AM 31.4228 -97.2897 191° South 462 532 30,000  Level Houston Center
09:09AM 31.2964 -97.3192 191° South 461 531 30,000  Level Houston Center
09:10AM 31.1708 -97.3486 191° South 457 526 30,000  Level Houston Center
09:11AM 31.0472 -97.3792 192° South 455 524 30,000  Level Houston Center
09:12AM 30.9219 -97.4064 191° South 462 532 30,000  Level Houston Center
09:14AM 30.7761 -97.4397 191° South 460 529 30,000 -540 Level Houston Center
09:15AM 30.6544 -97.4667 191° South 448 516 29,000 -1,620 Descending Houston Center
09:16AM 30.5389 -97.4939 191° South 425 489 26,800 -2,160 Descending Houston Center
09:17AM 30.4261 -97.5208 192° South 413 475 24,600 -2,100 Descending Houston Center
09:18AM 30.3239 -97.5683 202° Southwest 401 461 22,500 -2,040 Descending Houston Center
09:19AM 30.2297 -97.6319 210° Southwest 388 447 20,500 -2,100 Descending Houston Center
09:19AM 30.1547 -97.6842 211° Southwest 383 441 18,800 -2,160 Descending Houston Center
09:20AM 30.0800 -97.7372 212° Southwest 370 426 17,100 -2,100 Descending Houston Center
09:21AM 29.9914 -97.7969 210° Southwest 365 420 15,000 -2,040 Descending Houston Center
09:22AM 29.9125 -97.8528 212° Southwest 362 417 13,200 -1,440 Descending Houston Center
09:23AM 29.8817 -97.8997 233° Southwest 340 391 12,900 -1,440 Descending Houston Center
09:24AM 29.8417 -97.9942 244° Southwest 331 381 10,900 -1,800 Descending Houston Center
09:25AM 29.7989 -98.0947 244° Southwest 325 374 9,300 -1,440 Descending Houston Center
09:26AM 29.7617 -98.1833 244° Southwest 309 356 8,000 -1,380 Descending Houston Center
09:27AM 29.7278 -98.2694 246° West 297 342 6,500 -1,500 Descending Houston Center
09:28AM 29.6958 -98.3594 248° West 284 327 5,000 -1,320 Descending Houston Center
09:29AM 29.6647 -98.4383 246° West 274 315 3,900 -660 Descending Houston Center
09:30AM 29.6369 -98.5086 246° West 217 250 3,700 -540 Descending Houston Center
09:31AM 29.6047 -98.5397 220° Southwest 154 177 2,900 -1,080 Descending Houston Center
09:32AM 29.5703 -98.5203 154° Southeast 151 174 1,600 -1,080 Descending Houston Center
09:33AM 29.5419 -98.4828 131° Southeast 146 168 800 -780 Descending Houston Center
09:35AM 29.5340 -98.4691 196° South  Level Estimated